sensor_id;sensor_type;location;lat;lon;timestamp;P1;durP1;ratioP1;P2;durP2;ratioP2
25359;SDS011;13311;51.386;0.016;2024-01-06T00:02:17;12.82;;;7.50;;
25359;SDS011;13311;51.386;0.016;2024-01-06T00:07:18;13.07;;;8.00;;
25359;SDS011;13311;51.386;0.016;2024-01-06T00:12:18;10.52;;;7.55;;
25359;SDS011;13311;51.386;0.016;2024-01-06T00:17:19;16.20;;;8.25;;
25359;SDS011;13311;51.386;0.016;2024-01-06T00:22:20;13.10;;;7.75;;
25359;SDS011;13311;51.386;0.016;2024-01-06T00:27:21;12.35;;;8.23;;
25359;SDS011;13311;51.386;0.016;2024-01-06T00:32:21;12.40;;;7.00;;
25359;SDS011;13311;51.386;0.016;2024-01-06T00:37:22;12.23;;;7.72;;
25359;SDS011;13311;51.386;0.016;2024-01-06T00:42:23;12.23;;;7.25;;
25359;SDS011;13311;51.386;0.016;2024-01-06T00:47:24;10.77;;;7.75;;
25359;SDS011;13311;51.386;0.016;2024-01-06T00:52:25;10.07;;;7.78;;
25359;SDS011;13311;51.386;0.016;2024-01-06T00:57:25;14.27;;;7.45;;
25359;SDS011;13311;51.386;0.016;2024-01-06T01:02:26;14.30;;;7.90;;
25359;SDS011;13311;51.386;0.016;2024-01-06T01:07:27;16.63;;;7.38;;
25359;SDS011;13311;51.386;0.016;2024-01-06T01:12:28;13.23;;;8.13;;
25359;SDS011;13311;51.386;0.016;2024-01-06T01:17:28;10.57;;;7.93;;
25359;SDS011;13311;51.386;0.016;2024-01-06T01:22:29;11.85;;;7.82;;
25359;SDS011;13311;51.386;0.016;2024-01-06T01:27:30;18.83;;;8.80;;
25359;SDS011;13311;51.386;0.016;2024-01-06T01:32:31;11.80;;;7.55;;
25359;SDS011;13311;51.386;0.016;2024-01-06T01:37:32;12.48;;;7.47;;
25359;SDS011;13311;51.386;0.016;2024-01-06T01:42:32;12.27;;;7.53;;
25359;SDS011;13311;51.386;0.016;2024-01-06T01:47:34;11.48;;;7.78;;
25359;SDS011;13311;51.386;0.016;2024-01-06T01:52:35;13.05;;;7.32;;
25359;SDS011;13311;51.386;0.016;2024-01-06T01:57:36;12.38;;;7.47;;
25359;SDS011;13311;51.386;0.016;2024-01-06T02:02:38;12.63;;;7.70;;
25359;SDS011;13311;51.386;0.016;2024-01-06T02:07:39;16.08;;;7.93;;
25359;SDS011;13311;51.386;0.016;2024-01-06T02:12:40;14.57;;;8.00;;
25359;SDS011;13311;51.386;0.016;2024-01-06T02:17:41;10.75;;;7.53;;
25359;SDS011;13311;51.386;0.016;2024-01-06T02:22:42;10.68;;;6.57;;
25359;SDS011;13311;51.386;0.016;2024-01-06T02:27:43;12.27;;;7.85;;
25359;SDS011;13311;51.386;0.016;2024-01-06T02:32:44;10.98;;;7.53;;
25359;SDS011;13311;51.386;0.016;2024-01-06T02:37:44;12.30;;;7.07;;
25359;SDS011;13311;51.386;0.016;2024-01-06T02:42:45;10.60;;;6.82;;
25359;SDS011;13311;51.386;0.016;2024-01-06T02:47:46;11.45;;;7.20;;
25359;SDS011;13311;51.386;0.016;2024-01-06T02:52:46;13.10;;;6.30;;
25359;SDS011;13311;51.386;0.016;2024-01-06T02:57:47;9.80;;;5.85;;
25359;SDS011;13311;51.386;0.016;2024-01-06T03:02:48;11.48;;;6.70;;
25359;SDS011;13311;51.386;0.016;2024-01-06T03:07:48;11.48;;;7.03;;
25359;SDS011;13311;51.386;0.016;2024-01-06T03:12:49;13.82;;;8.18;;
25359;SDS011;13311;51.386;0.016;2024-01-06T03:17:50;11.18;;;6.43;;
25359;SDS011;13311;51.386;0.016;2024-01-06T03:22:51;12.27;;;7.15;;
25359;SDS011;13311;51.386;0.016;2024-01-06T03:27:51;10.15;;;6.05;;
25359;SDS011;13311;51.386;0.016;2024-01-06T03:32:52;11.23;;;5.97;;
25359;SDS011;13311;51.386;0.016;2024-01-06T03:37:53;8.73;;;5.70;;
25359;SDS011;13311;51.386;0.016;2024-01-06T03:42:53;11.65;;;6.03;;
25359;SDS011;13311;51.386;0.016;2024-01-06T03:47:54;14.93;;;6.18;;
25359;SDS011;13311;51.386;0.016;2024-01-06T03:52:55;10.95;;;6.35;;
25359;SDS011;13311;51.386;0.016;2024-01-06T03:57:56;11.60;;;6.07;;
25359;SDS011;13311;51.386;0.016;2024-01-06T04:02:57;10.32;;;5.20;;
25359;SDS011;13311;51.386;0.016;2024-01-06T04:07:57;9.68;;;5.10;;
25359;SDS011;13311;51.386;0.016;2024-01-06T04:12:58;8.18;;;4.30;;
25359;SDS011;13311;51.386;0.016;2024-01-06T04:18:01;10.35;;;4.25;;
25359;SDS011;13311;51.386;0.016;2024-01-06T04:23:03;10.38;;;4.75;;
25359;SDS011;13311;51.386;0.016;2024-01-06T04:28:04;6.10;;;3.67;;
25359;SDS011;13311;51.386;0.016;2024-01-06T04:33:05;4.32;;;3.17;;
25359;SDS011;13311;51.386;0.016;2024-01-06T04:38:07;6.47;;;3.78;;
25359;SDS011;13311;51.386;0.016;2024-01-06T04:43:08;10.30;;;3.42;;
25359;SDS011;13311;51.386;0.016;2024-01-06T04:48:09;8.10;;;4.18;;
25359;SDS011;13311;51.386;0.016;2024-01-06T04:53:10;4.85;;;3.72;;
25359;SDS011;13311;51.386;0.016;2024-01-06T04:58:11;5.20;;;3.47;;
25359;SDS011;13311;51.386;0.016;2024-01-06T05:03:11;8.63;;;4.63;;
25359;SDS011;13311;51.386;0.016;2024-01-06T05:08:12;5.45;;;3.60;;
25359;SDS011;13311;51.386;0.016;2024-01-06T05:13:13;6.20;;;3.97;;
25359;SDS011;13311;51.386;0.016;2024-01-06T05:18:13;7.53;;;3.60;;
25359;SDS011;13311;51.386;0.016;2024-01-06T05:23:14;4.63;;;3.40;;
25359;SDS011;13311;51.386;0.016;2024-01-06T05:28:15;5.85;;;2.88;;
25359;SDS011;13311;51.386;0.016;2024-01-06T05:33:16;6.32;;;3.42;;
25359;SDS011;13311;51.386;0.016;2024-01-06T05:38:16;7.78;;;3.47;;
25359;SDS011;13311;51.386;0.016;2024-01-06T05:43:17;10.80;;;3.92;;
25359;SDS011;13311;51.386;0.016;2024-01-06T05:48:18;5.07;;;2.90;;
25359;SDS011;13311;51.386;0.016;2024-01-06T05:53:18;5.15;;;3.00;;
25359;SDS011;13311;51.386;0.016;2024-01-06T05:58:19;4.72;;;2.85;;
25359;SDS011;13311;51.386;0.016;2024-01-06T06:03:20;7.97;;;2.97;;
25359;SDS011;13311;51.386;0.016;2024-01-06T06:08:21;6.88;;;3.03;;
25359;SDS011;13311;51.386;0.016;2024-01-06T06:13:21;6.47;;;2.50;;
25359;SDS011;13311;51.386;0.016;2024-01-06T06:18:22;3.75;;;2.53;;
25359;SDS011;13311;51.386;0.016;2024-01-06T06:23:23;5.78;;;2.85;;
25359;SDS011;13311;51.386;0.016;2024-01-06T06:28:24;5.68;;;2.47;;
25359;SDS011;13311;51.386;0.016;2024-01-06T06:33:25;3.78;;;2.20;;
25359;SDS011;13311;51.386;0.016;2024-01-06T06:38:26;6.65;;;3.35;;
25359;SDS011;13311;51.386;0.016;2024-01-06T06:43:27;6.20;;;2.60;;
25359;SDS011;13311;51.386;0.016;2024-01-06T06:48:27;5.93;;;2.08;;
25359;SDS011;13311;51.386;0.016;2024-01-06T06:53:28;4.53;;;1.98;;
25359;SDS011;13311;51.386;0.016;2024-01-06T06:58:29;6.38;;;2.50;;
25359;SDS011;13311;51.386;0.016;2024-01-06T07:03:30;6.05;;;2.15;;
25359;SDS011;13311;51.386;0.016;2024-01-06T07:08:30;6.40;;;2.33;;
25359;SDS011;13311;51.386;0.016;2024-01-06T07:13:31;3.90;;;2.40;;
25359;SDS011;13311;51.386;0.016;2024-01-06T07:18:32;6.63;;;2.42;;
25359;SDS011;13311;51.386;0.016;2024-01-06T07:23:33;4.22;;;2.63;;
25359;SDS011;13311;51.386;0.016;2024-01-06T07:28:34;5.80;;;2.15;;
25359;SDS011;13311;51.386;0.016;2024-01-06T07:33:35;4.57;;;1.98;;
25359;SDS011;13311;51.386;0.016;2024-01-06T07:38:36;9.13;;;2.88;;
25359;SDS011;13311;51.386;0.016;2024-01-06T07:43:36;6.15;;;1.85;;
25359;SDS011;13311;51.386;0.016;2024-01-06T07:48:37;5.43;;;2.15;;
25359;SDS011;13311;51.386;0.016;2024-01-06T07:53:38;4.18;;;2.35;;
25359;SDS011;13311;51.386;0.016;2024-01-06T07:58:38;8.07;;;3.55;;
25359;SDS011;13311;51.386;0.016;2024-01-06T08:03:39;4.97;;;2.65;;
25359;SDS011;13311;51.386;0.016;2024-01-06T08:08:40;5.38;;;2.83;;
25359;SDS011;13311;51.386;0.016;2024-01-06T08:13:40;3.63;;;2.08;;
25359;SDS011;13311;51.386;0.016;2024-01-06T08:18:41;6.35;;;2.47;;
25359;SDS011;13311;51.386;0.016;2024-01-06T08:23:42;5.88;;;2.90;;
25359;SDS011;13311;51.386;0.016;2024-01-06T08:28:42;7.30;;;2.55;;
25359;SDS011;13311;51.386;0.016;2024-01-06T08:33:43;5.50;;;2.55;;
25359;SDS011;13311;51.386;0.016;2024-01-06T08:38:44;6.88;;;2.63;;
25359;SDS011;13311;51.386;0.016;2024-01-06T08:43:44;4.60;;;2.55;;
25359;SDS011;13311;51.386;0.016;2024-01-06T08:48:45;6.30;;;3.13;;
25359;SDS011;13311;51.386;0.016;2024-01-06T08:53:46;2.33;;;1.40;;
25359;SDS011;13311;51.386;0.016;2024-01-06T08:58:47;4.40;;;1.98;;
25359;SDS011;13311;51.386;0.016;2024-01-06T09:03:47;4.68;;;1.80;;
25359;SDS011;13311;51.386;0.016;2024-01-06T09:08:49;2.05;;;0.90;;
25359;SDS011;13311;51.386;0.016;2024-01-06T09:13:50;2.03;;;0.73;;
25359;SDS011;13311;51.386;0.016;2024-01-06T09:18:52;0.90;;;0.70;;
25359;SDS011;13311;51.386;0.016;2024-01-06T09:23:53;1.85;;;1.40;;
25359;SDS011;13311;51.386;0.016;2024-01-06T09:28:54;2.92;;;1.23;;
25359;SDS011;13311;51.386;0.016;2024-01-06T09:33:54;2.35;;;1.17;;
25359;SDS011;13311;51.386;0.016;2024-01-06T09:38:55;2.35;;;0.85;;
25359;SDS011;13311;51.386;0.016;2024-01-06T09:43:56;3.13;;;0.75;;
25359;SDS011;13311;51.386;0.016;2024-01-06T09:48:57;2.13;;;0.73;;
25359;SDS011;13311;51.386;0.016;2024-01-06T09:53:59;1.33;;;1.02;;
25359;SDS011;13311;51.386;0.016;2024-01-06T09:59:01;1.55;;;0.55;;
25359;SDS011;13311;51.386;0.016;2024-01-06T10:04:02;2.22;;;0.82;;
25359;SDS011;13311;51.386;0.016;2024-01-06T10:09:03;2.83;;;0.70;;
25359;SDS011;13311;51.386;0.016;2024-01-06T10:14:05;2.03;;;1.20;;
25359;SDS011;13311;51.386;0.016;2024-01-06T10:19:06;2.65;;;1.10;;
25359;SDS011;13311;51.386;0.016;2024-01-06T10:24:08;2.85;;;0.90;;
25359;SDS011;13311;51.386;0.016;2024-01-06T10:29:09;6.05;;;1.00;;
25359;SDS011;13311;51.386;0.016;2024-01-06T10:34:11;4.60;;;1.23;;
25359;SDS011;13311;51.386;0.016;2024-01-06T10:39:12;2.75;;;1.15;;
25359;SDS011;13311;51.386;0.016;2024-01-06T10:44:15;1.77;;;0.70;;
25359;SDS011;13311;51.386;0.016;2024-01-06T10:49:16;2.22;;;1.35;;
25359;SDS011;13311;51.386;0.016;2024-01-06T10:54:21;4.70;;;2.30;;
25359;SDS011;13311;51.386;0.016;2024-01-06T10:59:22;5.63;;;2.15;;
25359;SDS011;13311;51.386;0.016;2024-01-06T11:04:26;6.90;;;2.67;;
25359;SDS011;13311;51.386;0.016;2024-01-06T11:09:29;5.22;;;3.17;;
25359;SDS011;13311;51.386;0.016;2024-01-06T11:14:38;6.05;;;2.88;;
25359;SDS011;13311;51.386;0.016;2024-01-06T11:24:43;6.15;;;2.20;;
25359;SDS011;13311;51.386;0.016;2024-01-06T11:29:57;4.85;;;1.98;;
25359;SDS011;13311;51.386;0.016;2024-01-06T11:35:13;4.38;;;1.63;;
25359;SDS011;13311;51.386;0.016;2024-01-06T11:40:25;5.25;;;2.50;;
25359;SDS011;13311;51.386;0.016;2024-01-06T11:45:37;5.43;;;2.00;;
25359;SDS011;13311;51.386;0.016;2024-01-06T11:50:41;4.70;;;1.85;;
25359;SDS011;13311;51.386;0.016;2024-01-06T11:55:42;9.02;;;2.42;;
25359;SDS011;13311;51.386;0.016;2024-01-06T12:00:42;4.57;;;1.77;;
25359;SDS011;13311;51.386;0.016;2024-01-06T12:05:44;4.45;;;2.25;;
25359;SDS011;13311;51.386;0.016;2024-01-06T12:10:45;4.47;;;2.97;;
25359;SDS011;13311;51.386;0.016;2024-01-06T12:15:45;6.18;;;2.63;;
25359;SDS011;13311;51.386;0.016;2024-01-06T12:20:46;3.92;;;2.00;;
25359;SDS011;13311;51.386;0.016;2024-01-06T12:25:47;5.85;;;2.58;;
25359;SDS011;13311;51.386;0.016;2024-01-06T12:30:49;2.25;;;1.60;;
25359;SDS011;13311;51.386;0.016;2024-01-06T12:35:50;5.82;;;1.98;;
25359;SDS011;13311;51.386;0.016;2024-01-06T12:40:51;3.15;;;1.73;;
25359;SDS011;13311;51.386;0.016;2024-01-06T12:45:51;8.07;;;2.40;;
25359;SDS011;13311;51.386;0.016;2024-01-06T12:50:53;4.25;;;1.30;;
25359;SDS011;13311;51.386;0.016;2024-01-06T12:55:54;3.50;;;1.85;;
25359;SDS011;13311;51.386;0.016;2024-01-06T13:00:54;4.22;;;1.50;;
25359;SDS011;13311;51.386;0.016;2024-01-06T13:05:55;5.00;;;1.60;;
25359;SDS011;13311;51.386;0.016;2024-01-06T13:10:56;1.58;;;1.00;;
25359;SDS011;13311;51.386;0.016;2024-01-06T13:15:57;6.50;;;1.58;;
25359;SDS011;13311;51.386;0.016;2024-01-06T13:20:58;3.67;;;1.27;;
25359;SDS011;13311;51.386;0.016;2024-01-06T13:25:58;3.72;;;1.42;;
25359;SDS011;13311;51.386;0.016;2024-01-06T13:30:59;1.63;;;1.17;;
25359;SDS011;13311;51.386;0.016;2024-01-06T13:36:00;3.10;;;1.38;;
25359;SDS011;13311;51.386;0.016;2024-01-06T13:41:01;3.53;;;1.25;;
25359;SDS011;13311;51.386;0.016;2024-01-06T13:46:03;5.25;;;1.15;;
25359;SDS011;13311;51.386;0.016;2024-01-06T13:51:03;3.42;;;1.55;;
25359;SDS011;13311;51.386;0.016;2024-01-06T13:56:04;2.33;;;1.60;;
25359;SDS011;13311;51.386;0.016;2024-01-06T14:01:06;2.88;;;1.50;;
25359;SDS011;13311;51.386;0.016;2024-01-06T14:06:10;2.88;;;1.55;;
25359;SDS011;13311;51.386;0.016;2024-01-06T14:11:11;3.65;;;2.00;;
25359;SDS011;13311;51.386;0.016;2024-01-06T14:16:11;2.25;;;1.70;;
25359;SDS011;13311;51.386;0.016;2024-01-06T14:21:12;4.13;;;1.98;;
25359;SDS011;13311;51.386;0.016;2024-01-06T14:26:15;2.17;;;1.52;;
25359;SDS011;13311;51.386;0.016;2024-01-06T14:31:20;2.90;;;1.70;;
25359;SDS011;13311;51.386;0.016;2024-01-06T14:36:20;2.85;;;1.52;;
25359;SDS011;13311;51.386;0.016;2024-01-06T14:41:21;3.85;;;1.38;;
25359;SDS011;13311;51.386;0.016;2024-01-06T14:46:22;1.98;;;1.27;;
25359;SDS011;13311;51.386;0.016;2024-01-06T14:51:22;2.38;;;1.15;;
25359;SDS011;13311;51.386;0.016;2024-01-06T14:56:24;4.95;;;2.33;;
25359;SDS011;13311;51.386;0.016;2024-01-06T15:01:26;7.70;;;2.38;;
25359;SDS011;13311;51.386;0.016;2024-01-06T15:06:27;4.88;;;1.38;;
25359;SDS011;13311;51.386;0.016;2024-01-06T15:11:27;7.80;;;2.30;;
25359;SDS011;13311;51.386;0.016;2024-01-06T15:16:28;3.38;;;2.00;;
25359;SDS011;13311;51.386;0.016;2024-01-06T15:21:29;2.20;;;2.00;;
25359;SDS011;13311;51.386;0.016;2024-01-06T15:26:33;4.20;;;2.40;;
25359;SDS011;13311;51.386;0.016;2024-01-06T15:31:34;4.13;;;2.58;;
25359;SDS011;13311;51.386;0.016;2024-01-06T15:36:35;2.47;;;1.65;;
25359;SDS011;13311;51.386;0.016;2024-01-06T15:41:35;3.00;;;1.90;;
25359;SDS011;13311;51.386;0.016;2024-01-06T15:46:37;4.78;;;1.40;;
25359;SDS011;13311;51.386;0.016;2024-01-06T15:51:37;3.20;;;2.00;;
25359;SDS011;13311;51.386;0.016;2024-01-06T15:56:38;6.60;;;2.60;;
25359;SDS011;13311;51.386;0.016;2024-01-06T16:01:39;7.30;;;3.03;;
25359;SDS011;13311;51.386;0.016;2024-01-06T16:06:40;4.75;;;2.80;;
25359;SDS011;13311;51.386;0.016;2024-01-06T16:11:41;4.80;;;3.50;;
25359;SDS011;13311;51.386;0.016;2024-01-06T16:16:42;5.97;;;3.38;;
25359;SDS011;13311;51.386;0.016;2024-01-06T16:21:43;7.13;;;3.00;;
25359;SDS011;13311;51.386;0.016;2024-01-06T16:26:44;6.82;;;2.70;;
25359;SDS011;13311;51.386;0.016;2024-01-06T16:31:45;8.50;;;3.80;;
25359;SDS011;13311;51.386;0.016;2024-01-06T16:36:46;4.40;;;2.47;;
25359;SDS011;13311;51.386;0.016;2024-01-06T16:41:47;8.05;;;4.18;;
25359;SDS011;13311;51.386;0.016;2024-01-06T16:46:48;5.90;;;3.95;;
25359;SDS011;13311;51.386;0.016;2024-01-06T16:51:48;6.70;;;4.22;;
25359;SDS011;13311;51.386;0.016;2024-01-06T16:56:49;8.32;;;4.28;;
25359;SDS011;13311;51.386;0.016;2024-01-06T17:01:50;7.22;;;3.70;;
25359;SDS011;13311;51.386;0.016;2024-01-06T17:06:51;8.55;;;3.90;;
25359;SDS011;13311;51.386;0.016;2024-01-06T17:11:52;5.03;;;3.88;;
25359;SDS011;13311;51.386;0.016;2024-01-06T17:16:52;7.20;;;4.70;;
25359;SDS011;13311;51.386;0.016;2024-01-06T17:21:53;4.00;;;2.95;;
25359;SDS011;13311;51.386;0.016;2024-01-06T17:26:54;7.40;;;4.35;;
25359;SDS011;13311;51.386;0.016;2024-01-06T17:31:55;5.47;;;3.42;;
25359;SDS011;13311;51.386;0.016;2024-01-06T17:36:55;5.28;;;3.30;;
25359;SDS011;13311;51.386;0.016;2024-01-06T17:41:56;5.53;;;4.18;;
25359;SDS011;13311;51.386;0.016;2024-01-06T17:46:57;5.05;;;3.65;;
25359;SDS011;13311;51.386;0.016;2024-01-06T17:51:58;4.97;;;3.75;;
25359;SDS011;13311;51.386;0.016;2024-01-06T17:56:59;5.80;;;3.97;;
25359;SDS011;13311;51.386;0.016;2024-01-06T18:02:00;5.68;;;3.10;;
25359;SDS011;13311;51.386;0.016;2024-01-06T18:07:01;6.07;;;3.28;;
25359;SDS011;13311;51.386;0.016;2024-01-06T18:12:02;4.10;;;2.75;;
25359;SDS011;13311;51.386;0.016;2024-01-06T18:17:04;7.50;;;3.58;;
25359;SDS011;13311;51.386;0.016;2024-01-06T18:22:06;4.70;;;3.92;;
25359;SDS011;13311;51.386;0.016;2024-01-06T18:27:07;6.72;;;4.10;;
25359;SDS011;13311;51.386;0.016;2024-01-06T18:32:08;7.53;;;4.20;;
25359;SDS011;13311;51.386;0.016;2024-01-06T18:37:08;5.38;;;3.70;;
25359;SDS011;13311;51.386;0.016;2024-01-06T18:42:09;5.40;;;4.00;;
25359;SDS011;13311;51.386;0.016;2024-01-06T18:47:13;5.82;;;4.10;;
25359;SDS011;13311;51.386;0.016;2024-01-06T18:52:15;7.50;;;4.20;;
25359;SDS011;13311;51.386;0.016;2024-01-06T18:57:16;4.70;;;3.70;;
25359;SDS011;13311;51.386;0.016;2024-01-06T19:02:17;7.13;;;3.55;;
25359;SDS011;13311;51.386;0.016;2024-01-06T19:07:18;7.00;;;3.13;;
25359;SDS011;13311;51.386;0.016;2024-01-06T19:12:19;5.75;;;3.60;;
25359;SDS011;13311;51.386;0.016;2024-01-06T19:17:19;5.53;;;3.85;;
25359;SDS011;13311;51.386;0.016;2024-01-06T19:22:23;6.35;;;3.70;;
25359;SDS011;13311;51.386;0.016;2024-01-06T19:27:23;6.47;;;4.10;;
25359;SDS011;13311;51.386;0.016;2024-01-06T19:32:24;7.22;;;3.75;;
25359;SDS011;13311;51.386;0.016;2024-01-06T19:37:26;6.57;;;4.75;;
25359;SDS011;13311;51.386;0.016;2024-01-06T19:42:26;8.90;;;5.35;;
25359;SDS011;13311;51.386;0.016;2024-01-06T19:47:27;8.93;;;5.28;;
25359;SDS011;13311;51.386;0.016;2024-01-06T19:52:29;8.65;;;6.03;;
25359;SDS011;13311;51.386;0.016;2024-01-06T19:57:30;9.38;;;5.78;;
25359;SDS011;13311;51.386;0.016;2024-01-06T20:02:30;9.32;;;6.00;;
25359;SDS011;13311;51.386;0.016;2024-01-06T20:07:31;9.95;;;6.20;;
25359;SDS011;13311;51.386;0.016;2024-01-06T20:12:32;9.40;;;5.70;;
25359;SDS011;13311;51.386;0.016;2024-01-06T20:17:32;10.65;;;6.85;;
25359;SDS011;13311;51.386;0.016;2024-01-06T20:22:33;10.13;;;5.97;;
25359;SDS011;13311;51.386;0.016;2024-01-06T20:27:34;7.95;;;6.28;;
25359;SDS011;13311;51.386;0.016;2024-01-06T20:32:35;10.20;;;6.88;;
25359;SDS011;13311;51.386;0.016;2024-01-06T20:37:36;12.45;;;7.22;;
25359;SDS011;13311;51.386;0.016;2024-01-06T20:42:37;12.65;;;8.40;;
25359;SDS011;13311;51.386;0.016;2024-01-06T20:47:38;16.65;;;9.00;;
25359;SDS011;13311;51.386;0.016;2024-01-06T20:52:40;12.13;;;9.00;;
25359;SDS011;13311;51.386;0.016;2024-01-06T20:57:41;13.30;;;8.55;;
25359;SDS011;13311;51.386;0.016;2024-01-06T21:02:43;10.52;;;7.00;;
25359;SDS011;13311;51.386;0.016;2024-01-06T21:07:44;10.95;;;6.60;;
25359;SDS011;13311;51.386;0.016;2024-01-06T21:12:44;8.48;;;6.05;;
25359;SDS011;13311;51.386;0.016;2024-01-06T21:17:45;8.88;;;6.57;;
25359;SDS011;13311;51.386;0.016;2024-01-06T21:22:47;9.93;;;6.55;;
25359;SDS011;13311;51.386;0.016;2024-01-06T21:27:48;14.00;;;7.88;;
25359;SDS011;13311;51.386;0.016;2024-01-06T21:32:49;9.40;;;5.82;;
25359;SDS011;13311;51.386;0.016;2024-01-06T21:37:51;9.88;;;5.88;;
25359;SDS011;13311;51.386;0.016;2024-01-06T21:42:53;7.05;;;4.53;;
25359;SDS011;13311;51.386;0.016;2024-01-06T21:47:54;11.23;;;4.43;;
25359;SDS011;13311;51.386;0.016;2024-01-06T21:52:55;4.60;;;3.00;;
25359;SDS011;13311;51.386;0.016;2024-01-06T21:57:56;3.97;;;2.35;;
25359;SDS011;13311;51.386;0.016;2024-01-06T22:02:57;5.07;;;2.65;;
25359;SDS011;13311;51.386;0.016;2024-01-06T22:07:57;4.63;;;2.25;;
25359;SDS011;13311;51.386;0.016;2024-01-06T22:12:58;3.30;;;2.17;;
25359;SDS011;13311;51.386;0.016;2024-01-06T22:18:00;4.07;;;1.50;;
25359;SDS011;13311;51.386;0.016;2024-01-06T22:23:01;5.18;;;2.53;;
25359;SDS011;13311;51.386;0.016;2024-01-06T22:28:01;9.88;;;3.25;;
25359;SDS011;13311;51.386;0.016;2024-01-06T22:33:02;3.00;;;1.70;;
25359;SDS011;13311;51.386;0.016;2024-01-06T22:38:03;7.68;;;2.35;;
25359;SDS011;13311;51.386;0.016;2024-01-06T22:43:04;5.25;;;1.90;;
25359;SDS011;13311;51.386;0.016;2024-01-06T22:48:05;4.68;;;1.88;;
25359;SDS011;13311;51.386;0.016;2024-01-06T22:53:07;6.28;;;2.47;;
25359;SDS011;13311;51.386;0.016;2024-01-06T22:58:08;3.70;;;2.53;;
25359;SDS011;13311;51.386;0.016;2024-01-06T23:03:09;3.85;;;1.90;;
25359;SDS011;13311;51.386;0.016;2024-01-06T23:08:09;6.03;;;2.75;;
25359;SDS011;13311;51.386;0.016;2024-01-06T23:13:11;4.78;;;1.65;;
25359;SDS011;13311;51.386;0.016;2024-01-06T23:18:12;5.10;;;1.95;;
25359;SDS011;13311;51.386;0.016;2024-01-06T23:23:12;8.73;;;2.55;;
25359;SDS011;13311;51.386;0.016;2024-01-06T23:28:13;4.63;;;2.03;;
25359;SDS011;13311;51.386;0.016;2024-01-06T23:33:14;6.38;;;1.80;;
25359;SDS011;13311;51.386;0.016;2024-01-06T23:38:15;2.92;;;1.60;;
25359;SDS011;13311;51.386;0.016;2024-01-06T23:43:15;4.47;;;1.55;;
25359;SDS011;13311;51.386;0.016;2024-01-06T23:48:16;7.95;;;2.15;;
25359;SDS011;13311;51.386;0.016;2024-01-06T23:53:17;14.20;;;2.28;;
25359;SDS011;13311;51.386;0.016;2024-01-06T23:58:17;13.38;;;2.50;;
